SAS2986 EKCH-ENCN
Flight info
| Callsign | SAS2986 |
|---|---|
| Flight time | 0h 46m |
| Altitude | 30000 |
| Route | EKCH/22R GOLG2C GOLGA DCT LAGUM L621 AMSEV AMSE2L ENCN/03 |
| Aircraft | A320/M-SDE3FGHIRWY/LB1 |
Departure
| Time | 2026-05-04 09:30 |
|---|---|
| Airport | Copenhagen Kastrup Airport (EKCH) |
Arrival
| Time | 2026-05-04 10:16 |
|---|---|
| Airport | Kristiansand Airport (ENCN) |
| Time | Latitude | Longitude | Altitude | Speed | Heading |
|---|---|---|---|---|---|
| 2026-05-04 09:02 | 55.62670 | 12.64439 | 19 ft | 0 kts | 101° |
| 2026-05-04 09:22 | 55.62672 | 12.64419 | 19 ft | 4 kts | 101° |
| 2026-05-04 09:22 | 55.62677 | 12.64378 | 17 ft | 3 kts | 101° |
| 2026-05-04 09:22 | 55.62677 | 12.64335 | 17 ft | 4 kts | 59° |
| 2026-05-04 09:22 | 55.62659 | 12.64304 | 20 ft | 4 kts | 25° |
| 2026-05-04 09:23 | 55.62634 | 12.64286 | 17 ft | 4 kts | 19° |
| 2026-05-04 09:23 | 55.62612 | 12.64271 | 17 ft | 4 kts | 29° |
| 2026-05-04 09:23 | 55.62590 | 12.64243 | 17 ft | 4 kts | 35° |
| 2026-05-04 09:23 | 55.62572 | 12.64223 | 18 ft | 4 kts | 31° |
| 2026-05-04 09:25 | 55.62559 | 12.64101 | 21 ft | 0 kts | 123° |
| 2026-05-04 09:26 | 55.62559 | 12.64103 | 21 ft | 1 kts | 123° |
| 2026-05-04 09:27 | 55.62533 | 12.64172 | 18 ft | 11 kts | 123° |
| 2026-05-04 09:27 | 55.62460 | 12.64356 | 17 ft | 22 kts | 128° |
| 2026-05-04 09:27 | 55.62354 | 12.64434 | 17 ft | 18 kts | 195° |
| 2026-05-04 09:27 | 55.62220 | 12.64366 | 15 ft | 23 kts | 201° |
| 2026-05-04 09:28 | 55.62074 | 12.64241 | 17 ft | 24 kts | 206° |
| 2026-05-04 09:28 | 55.61913 | 12.64106 | 18 ft | 27 kts | 205° |
| 2026-05-04 09:28 | 55.61797 | 12.64079 | 17 ft | 13 kts | 180° |
| 2026-05-04 09:28 | 55.61732 | 12.64083 | 18 ft | 15 kts | 178° |
| 2026-05-04 09:29 | 55.61624 | 12.64070 | 21 ft | 17 kts | 211° |
| 2026-05-04 09:29 | 55.61522 | 12.63915 | 21 ft | 24 kts | 221° |
| 2026-05-04 09:29 | 55.61213 | 12.63434 | 21 ft | 104 kts | 221° |
| 2026-05-04 09:29 | 55.60492 | 12.62307 | 155 ft | 161 kts | 225° |
| 2026-05-04 09:30 | 55.59641 | 12.61001 | 795 ft | 163 kts | 225° |
| 2026-05-04 09:30 | 55.58730 | 12.59588 | 1186 ft | 186 kts | 225° |
| 2026-05-04 09:30 | 55.57693 | 12.57976 | 1666 ft | 211 kts | 224° |
| 2026-05-04 09:30 | 55.56548 | 12.56148 | 2280 ft | 229 kts | 231° |
| 2026-05-04 09:31 | 55.55879 | 12.53588 | 2993 ft | 237 kts | 265° |
| 2026-05-04 09:31 | 55.55938 | 12.50662 | 3687 ft | 241 kts | 279° |
| 2026-05-04 09:31 | 55.56248 | 12.47753 | 4383 ft | 244 kts | 282° |
| 2026-05-04 09:31 | 55.56611 | 12.44805 | 5076 ft | 246 kts | 282° |
| 2026-05-04 09:32 | 55.56957 | 12.41826 | 5770 ft | 248 kts | 281° |
| 2026-05-04 09:32 | 55.57268 | 12.38814 | 6462 ft | 251 kts | 280° |
| 2026-05-04 09:34 | 55.66313 | 12.23181 | 11750 ft | 284 kts | 313° |
| 2026-05-04 09:34 | 55.67791 | 12.20877 | 12519 ft | 289 kts | 313° |
| 2026-05-04 09:34 | 55.69327 | 12.18481 | 13152 ft | 299 kts | 313° |
| 2026-05-04 09:34 | 55.70912 | 12.16013 | 13791 ft | 308 kts | 313° |
| 2026-05-04 09:35 | 55.72549 | 12.13464 | 14346 ft | 317 kts | 313° |
| 2026-05-04 09:35 | 55.74230 | 12.10849 | 14913 ft | 325 kts | 313° |
| 2026-05-04 09:35 | 55.75949 | 12.08174 | 15488 ft | 332 kts | 313° |
| 2026-05-04 09:35 | 55.77696 | 12.05454 | 16077 ft | 336 kts | 313° |
| 2026-05-04 09:37 | 55.90382 | 11.85597 | 20198 ft | 357 kts | 313° |
| 2026-05-04 09:37 | 55.92251 | 11.82656 | 20792 ft | 360 kts | 312° |
| 2026-05-04 09:38 | 55.94139 | 11.79682 | 21387 ft | 363 kts | 312° |
| 2026-05-04 09:38 | 55.96037 | 11.76687 | 21995 ft | 366 kts | 312° |
| 2026-05-04 09:38 | 55.97952 | 11.73668 | 22608 ft | 368 kts | 312° |
| 2026-05-04 09:38 | 55.99874 | 11.70626 | 23252 ft | 370 kts | 312° |
| 2026-05-04 09:39 | 56.01803 | 11.67564 | 23833 ft | 372 kts | 312° |
| 2026-05-04 09:39 | 56.03744 | 11.64483 | 24413 ft | 374 kts | 312° |
| 2026-05-04 09:39 | 56.05688 | 11.61397 | 24974 ft | 375 kts | 312° |
| 2026-05-04 09:39 | 56.07646 | 11.58286 | 25543 ft | 375 kts | 312° |
| 2026-05-04 09:40 | 56.09598 | 11.55176 | 26122 ft | 375 kts | 312° |
| 2026-05-04 09:40 | 56.11552 | 11.52052 | 26717 ft | 375 kts | 312° |
| 2026-05-04 09:40 | 56.13471 | 11.48978 | 27316 ft | 375 kts | 312° |
| 2026-05-04 09:40 | 56.15411 | 11.45869 | 27952 ft | 374 kts | 312° |
| 2026-05-04 09:41 | 56.17342 | 11.42773 | 28582 ft | 372 kts | 312° |
| 2026-05-04 09:42 | 56.31116 | 11.20550 | 29918 ft | 387 kts | 313° |
| 2026-05-04 09:43 | 56.35122 | 11.14056 | 29924 ft | 388 kts | 313° |
| 2026-05-04 09:43 | 56.39136 | 11.07529 | 29915 ft | 388 kts | 313° |
| 2026-05-04 09:44 | 56.43144 | 11.00989 | 29914 ft | 388 kts | 313° |
| 2026-05-04 09:46 | 56.59115 | 10.74723 | 29920 ft | 388 kts | 312° |
| 2026-05-04 09:46 | 56.63102 | 10.68109 | 29907 ft | 388 kts | 312° |
| 2026-05-04 09:47 | 56.67085 | 10.61489 | 29934 ft | 388 kts | 312° |
| 2026-05-04 09:49 | 56.82975 | 10.34870 | 29909 ft | 387 kts | 313° |
| 2026-05-04 09:51 | 56.96804 | 10.11460 | 29909 ft | 387 kts | 313° |
| 2026-05-04 09:51 | 57.00741 | 10.04744 | 29925 ft | 386 kts | 313° |
| 2026-05-04 09:52 | 57.04665 | 9.98028 | 29928 ft | 385 kts | 313° |
| 2026-05-04 09:52 | 57.08571 | 9.91331 | 29919 ft | 383 kts | 313° |
| 2026-05-04 09:53 | 57.12464 | 9.84630 | 29911 ft | 383 kts | 313° |
| 2026-05-04 09:53 | 57.16344 | 9.77929 | 29909 ft | 382 kts | 313° |
| 2026-05-04 09:54 | 57.20216 | 9.71222 | 29911 ft | 382 kts | 313° |
| 2026-05-04 09:54 | 57.24105 | 9.64470 | 29894 ft | 392 kts | 313° |
| 2026-05-04 09:54 | 57.26115 | 9.60961 | 29782 ft | 399 kts | 313° |
| 2026-05-04 09:55 | 57.28100 | 9.57502 | 29303 ft | 383 kts | 313° |
| 2026-05-04 09:55 | 57.30005 | 9.54189 | 28889 ft | 371 kts | 313° |
| 2026-05-04 09:55 | 57.31859 | 9.50951 | 28407 ft | 365 kts | 312° |
| 2026-05-04 09:55 | 57.33692 | 9.47739 | 27911 ft | 361 kts | 312° |
| 2026-05-04 09:56 | 57.35505 | 9.44556 | 27417 ft | 358 kts | 312° |
| 2026-05-04 09:56 | 57.37303 | 9.41395 | 26938 ft | 355 kts | 311° |
| 2026-05-04 09:56 | 57.39089 | 9.38259 | 26460 ft | 352 kts | 311° |
| 2026-05-04 09:56 | 57.40856 | 9.35153 | 26014 ft | 350 kts | 311° |
| 2026-05-04 09:57 | 57.42583 | 9.32000 | 25552 ft | 345 kts | 306° |
| 2026-05-04 09:57 | 57.44100 | 9.28656 | 25119 ft | 342 kts | 304° |
| 2026-05-04 09:57 | 57.45619 | 9.25212 | 24676 ft | 339 kts | 304° |
| 2026-05-04 09:57 | 57.47081 | 9.21853 | 24245 ft | 337 kts | 304° |
| 2026-05-04 09:58 | 57.48543 | 9.18472 | 23807 ft | 335 kts | 303° |
| 2026-05-04 09:58 | 57.49993 | 9.15110 | 23378 ft | 332 kts | 303° |
| 2026-05-04 09:58 | 57.51437 | 9.11771 | 22878 ft | 330 kts | 303° |
| 2026-05-04 10:00 | 57.60965 | 8.89716 | 19596 ft | 301 kts | 303° |
| 2026-05-04 10:00 | 57.62271 | 8.86678 | 19178 ft | 299 kts | 303° |
| 2026-05-04 10:02 | 57.71124 | 8.66000 | 15603 ft | 283 kts | 303° |
| 2026-05-04 10:04 | 57.79443 | 8.46391 | 12013 ft | 268 kts | 304° |
| 2026-05-04 10:04 | 57.80594 | 8.43655 | 11493 ft | 267 kts | 304° |
| 2026-05-04 10:04 | 57.81740 | 8.40933 | 10989 ft | 265 kts | 305° |
| 2026-05-04 10:04 | 57.82868 | 8.38201 | 10469 ft | 264 kts | 305° |
| 2026-05-04 10:05 | 57.83994 | 8.35508 | 9982 ft | 259 kts | 306° |
| 2026-05-04 10:05 | 57.85095 | 8.32915 | 9512 ft | 251 kts | 306° |
| 2026-05-04 10:05 | 57.86169 | 8.30385 | 9033 ft | 245 kts | 306° |
| 2026-05-04 10:05 | 57.87214 | 8.27911 | 8574 ft | 242 kts | 306° |
| 2026-05-04 10:06 | 57.88256 | 8.25428 | 8085 ft | 241 kts | 306° |
| 2026-05-04 10:06 | 57.89281 | 8.22977 | 7617 ft | 236 kts | 306° |
| 2026-05-04 10:06 | 57.90282 | 8.20582 | 7163 ft | 231 kts | 306° |
| 2026-05-04 10:08 | 57.95589 | 8.06934 | 4695 ft | 198 kts | 305° |
| 2026-05-04 10:08 | 57.96365 | 8.04833 | 4366 ft | 192 kts | 305° |
| 2026-05-04 10:08 | 57.97113 | 8.02820 | 4053 ft | 184 kts | 305° |
| 2026-05-04 10:08 | 57.97841 | 8.00862 | 3699 ft | 182 kts | 306° |
| 2026-05-04 10:09 | 57.98564 | 7.98920 | 3369 ft | 180 kts | 306° |
| 2026-05-04 10:09 | 57.99284 | 7.96984 | 3048 ft | 179 kts | 306° |
| 2026-05-04 10:09 | 57.99971 | 7.95138 | 3012 ft | 167 kts | 304° |
| 2026-05-04 10:09 | 58.00627 | 7.93378 | 3014 ft | 162 kts | 305° |
| 2026-05-04 10:10 | 58.01270 | 7.91649 | 3015 ft | 161 kts | 304° |
| 2026-05-04 10:10 | 58.01918 | 7.89935 | 3014 ft | 161 kts | 308° |
| 2026-05-04 10:10 | 58.02780 | 7.88608 | 3009 ft | 161 kts | 329° |
| 2026-05-04 10:10 | 58.03815 | 7.88059 | 3010 ft | 154 kts | 351° |
| 2026-05-04 10:11 | 58.04529 | 7.88134 | 3040 ft | 157 kts | 3° |
| 2026-05-04 10:11 | 58.05564 | 7.88938 | 3017 ft | 166 kts | 26° |
| 2026-05-04 10:11 | 58.06828 | 7.90596 | 3016 ft | 167 kts | 30° |
| 2026-05-04 10:11 | 58.07779 | 7.91849 | 3011 ft | 166 kts | 29° |
| 2026-05-04 10:12 | 58.08714 | 7.93081 | 2968 ft | 162 kts | 26° |
| 2026-05-04 10:12 | 58.09628 | 7.94283 | 2797 ft | 158 kts | 27° |
| 2026-05-04 10:12 | 58.10531 | 7.95471 | 2575 ft | 158 kts | 30° |
| 2026-05-04 10:12 | 58.11423 | 7.96645 | 2349 ft | 157 kts | 28° |
| 2026-05-04 10:13 | 58.12026 | 7.97440 | 2179 ft | 156 kts | 29° |
| 2026-05-04 10:13 | 58.12909 | 7.98605 | 1934 ft | 155 kts | 26° |
| 2026-05-04 10:13 | 58.13796 | 7.99772 | 1703 ft | 157 kts | 28° |
| 2026-05-04 10:13 | 58.14684 | 8.00945 | 1448 ft | 152 kts | 30° |
| 2026-05-04 10:14 | 58.15529 | 8.02063 | 1215 ft | 147 kts | 29° |
| 2026-05-04 10:14 | 58.16344 | 8.03139 | 1025 ft | 145 kts | 28° |
| 2026-05-04 10:16 | 58.20820 | 8.09058 | 59 ft | 28 kts | 35° |
| 2026-05-04 10:16 | 58.20981 | 8.09277 | 57 ft | 24 kts | 34° |
| 2026-05-04 10:16 | 58.21112 | 8.09482 | 58 ft | 14 kts | 54° |
| 2026-05-04 10:16 | 58.21158 | 8.09480 | 53 ft | 5 kts | 256° |
| 2026-05-04 10:17 | 58.21074 | 8.09404 | 55 ft | 19 kts | 225° |
| 2026-05-04 10:17 | 58.20962 | 8.09255 | 60 ft | 22 kts | 215° |
| 2026-05-04 10:19 | 58.20416 | 8.08015 | 55 ft | 16 kts | 233° |
| 2026-05-04 10:19 | 58.20340 | 8.07838 | 58 ft | 19 kts | 231° |
| 2026-05-04 10:19 | 58.20239 | 8.07659 | 52 ft | 22 kts | 212° |
| 2026-05-04 10:19 | 58.20144 | 8.07547 | 55 ft | 8 kts | 212° |
| 2026-05-04 10:20 | 58.20136 | 8.07503 | 53 ft | 3 kts | 293° |
| 2026-05-04 10:20 | 58.20152 | 8.07444 | 55 ft | 3 kts | 303° |
| 2026-05-04 10:20 | 58.20152 | 8.07442 | 55 ft | 0 kts | 303° |